sensor_id;sensor_type;location;lat;lon;timestamp;temperature;humidity
52941;DHT22;62001;53.366;6.636;2023-03-25T00:01:39;9.70;99.90
52941;DHT22;62001;53.366;6.636;2023-03-25T00:04:04;9.70;99.90
52941;DHT22;62001;53.366;6.636;2023-03-25T00:06:31;9.70;99.90
52941;DHT22;62001;53.366;6.636;2023-03-25T00:09:00;9.70;99.90
52941;DHT22;62001;53.366;6.636;2023-03-25T00:11:27;9.70;99.90
52941;DHT22;62001;53.366;6.636;2023-03-25T00:13:53;9.70;99.90
52941;DHT22;62001;53.366;6.636;2023-03-25T00:16:19;9.80;99.90
52941;DHT22;62001;53.366;6.636;2023-03-25T00:18:45;9.70;99.90
52941;DHT22;62001;53.366;6.636;2023-03-25T00:21:14;9.70;99.90
52941;DHT22;62001;53.366;6.636;2023-03-25T00:23:41;9.70;99.90
52941;DHT22;62001;53.366;6.636;2023-03-25T00:26:07;9.70;99.90
52941;DHT22;62001;53.366;6.636;2023-03-25T00:28:35;9.70;99.90
52941;DHT22;62001;53.366;6.636;2023-03-25T00:31:03;9.70;99.90
52941;DHT22;62001;53.366;6.636;2023-03-25T00:33:30;9.70;99.90
52941;DHT22;62001;53.366;6.636;2023-03-25T00:36:00;9.60;99.90
52941;DHT22;62001;53.366;6.636;2023-03-25T00:38:28;9.60;99.90
52941;DHT22;62001;53.366;6.636;2023-03-25T00:41:18;9.60;99.90
52941;DHT22;62001;53.366;6.636;2023-03-25T00:43:49;9.60;99.90
52941;DHT22;62001;53.366;6.636;2023-03-25T00:46:15;9.60;99.90
52941;DHT22;62001;53.366;6.636;2023-03-25T00:48:41;9.70;99.90
52941;DHT22;62001;53.366;6.636;2023-03-25T00:51:08;9.70;99.90
52941;DHT22;62001;53.366;6.636;2023-03-25T00:53:39;9.70;99.90
52941;DHT22;62001;53.366;6.636;2023-03-25T00:56:06;9.70;99.90
52941;DHT22;62001;53.366;6.636;2023-03-25T00:58:32;9.60;99.90
52941;DHT22;62001;53.366;6.636;2023-03-25T01:00:58;9.60;99.90
52941;DHT22;62001;53.366;6.636;2023-03-25T01:03:27;9.60;99.90
52941;DHT22;62001;53.366;6.636;2023-03-25T01:05:56;9.70;99.90
52941;DHT22;62001;53.366;6.636;2023-03-25T01:08:23;9.60;99.90
52941;DHT22;62001;53.366;6.636;2023-03-25T01:10:51;9.60;99.90
52941;DHT22;62001;53.366;6.636;2023-03-25T01:13:17;9.60;99.90
52941;DHT22;62001;53.366;6.636;2023-03-25T01:15:43;9.60;99.90
52941;DHT22;62001;53.366;6.636;2023-03-25T01:18:09;9.50;99.90
52941;DHT22;62001;53.366;6.636;2023-03-25T01:20:35;9.40;99.90
52941;DHT22;62001;53.366;6.636;2023-03-25T01:23:01;9.30;99.90
52941;DHT22;62001;53.366;6.636;2023-03-25T01:25:30;9.30;99.90
52941;DHT22;62001;53.366;6.636;2023-03-25T01:27:56;9.20;99.90
52941;DHT22;62001;53.366;6.636;2023-03-25T01:30:22;9.20;99.90
52941;DHT22;62001;53.366;6.636;2023-03-25T01:32:48;9.20;99.90
52941;DHT22;62001;53.366;6.636;2023-03-25T01:35:13;9.20;99.90
52941;DHT22;62001;53.366;6.636;2023-03-25T01:37:40;9.10;99.90
52941;DHT22;62001;53.366;6.636;2023-03-25T01:40:10;9.10;99.90
52941;DHT22;62001;53.366;6.636;2023-03-25T01:42:41;9.00;99.90
52941;DHT22;62001;53.366;6.636;2023-03-25T01:45:14;8.90;99.90
52941;DHT22;62001;53.366;6.636;2023-03-25T01:47:42;8.90;99.90
52941;DHT22;62001;53.366;6.636;2023-03-25T01:50:08;8.90;99.90
52941;DHT22;62001;53.366;6.636;2023-03-25T01:52:42;8.90;99.90
52941;DHT22;62001;53.366;6.636;2023-03-25T01:55:10;8.80;99.90
52941;DHT22;62001;53.366;6.636;2023-03-25T01:57:39;8.80;99.90
52941;DHT22;62001;53.366;6.636;2023-03-25T02:00:09;8.80;99.90
52941;DHT22;62001;53.366;6.636;2023-03-25T02:02:35;8.80;99.90
52941;DHT22;62001;53.366;6.636;2023-03-25T02:05:18;8.80;99.90
52941;DHT22;62001;53.366;6.636;2023-03-25T02:07:46;8.80;99.90
52941;DHT22;62001;53.366;6.636;2023-03-25T02:10:13;8.80;99.90
52941;DHT22;62001;53.366;6.636;2023-03-25T02:12:40;8.80;99.90
52941;DHT22;62001;53.366;6.636;2023-03-25T02:15:07;8.80;99.90
52941;DHT22;62001;53.366;6.636;2023-03-25T02:28:37;8.70;99.90
52941;DHT22;62001;53.366;6.636;2023-03-25T02:33:52;8.70;99.90
52941;DHT22;62001;53.366;6.636;2023-03-25T02:39:02;8.70;99.90
52941;DHT22;62001;53.366;6.636;2023-03-25T02:41:52;8.70;99.90
52941;DHT22;62001;53.366;6.636;2023-03-25T02:44:22;8.70;99.90
52941;DHT22;62001;53.366;6.636;2023-03-25T02:46:53;8.70;99.90
52941;DHT22;62001;53.366;6.636;2023-03-25T02:49:28;8.70;99.90
52941;DHT22;62001;53.366;6.636;2023-03-25T02:52:10;8.70;99.90
52941;DHT22;62001;53.366;6.636;2023-03-25T02:54:39;8.70;99.90
52941;DHT22;62001;53.366;6.636;2023-03-25T02:57:07;8.80;99.90
52941;DHT22;62001;53.366;6.636;2023-03-25T02:59:34;8.80;99.90
52941;DHT22;62001;53.366;6.636;2023-03-25T03:02:06;8.80;99.90
52941;DHT22;62001;53.366;6.636;2023-03-25T03:04:49;8.80;99.90
52941;DHT22;62001;53.366;6.636;2023-03-25T03:10:15;8.80;99.90
52941;DHT22;62001;53.366;6.636;2023-03-25T03:20:58;8.80;99.90
52941;DHT22;62001;53.366;6.636;2023-03-25T03:23:30;8.80;99.90
52941;DHT22;62001;53.366;6.636;2023-03-25T03:26:24;8.80;99.90
52941;DHT22;62001;53.366;6.636;2023-03-25T03:29:09;8.80;99.90
52941;DHT22;62001;53.366;6.636;2023-03-25T03:34:58;8.80;99.90
52941;DHT22;62001;53.366;6.636;2023-03-25T03:37:41;8.80;99.90
52941;DHT22;62001;53.366;6.636;2023-03-25T03:40:16;8.70;99.90
52941;DHT22;62001;53.366;6.636;2023-03-25T03:42:55;8.70;99.90
52941;DHT22;62001;53.366;6.636;2023-03-25T03:47:55;8.70;99.90
52941;DHT22;62001;53.366;6.636;2023-03-25T03:50:27;8.70;99.90
52941;DHT22;62001;53.366;6.636;2023-03-25T03:53:11;8.80;99.90
52941;DHT22;62001;53.366;6.636;2023-03-25T03:56:01;8.70;99.90
52941;DHT22;62001;53.366;6.636;2023-03-25T03:58:35;8.80;99.90
52941;DHT22;62001;53.366;6.636;2023-03-25T04:01:19;8.80;99.90
52941;DHT22;62001;53.366;6.636;2023-03-25T04:04:01;8.80;99.90
52941;DHT22;62001;53.366;6.636;2023-03-25T04:09:50;8.80;99.90
52941;DHT22;62001;53.366;6.636;2023-03-25T04:12:43;8.80;99.90
52941;DHT22;62001;53.366;6.636;2023-03-25T04:15:11;8.70;99.90
52941;DHT22;62001;53.366;6.636;2023-03-25T04:17:37;8.70;99.90
52941;DHT22;62001;53.366;6.636;2023-03-25T04:20:04;8.70;99.90
52941;DHT22;62001;53.366;6.636;2023-03-25T04:22:36;8.70;99.90
52941;DHT22;62001;53.366;6.636;2023-03-25T04:25:10;8.60;99.90
52941;DHT22;62001;53.366;6.636;2023-03-25T04:27:37;8.60;99.90
52941;DHT22;62001;53.366;6.636;2023-03-25T04:30:04;8.60;99.90
52941;DHT22;62001;53.366;6.636;2023-03-25T04:32:30;8.60;99.90
52941;DHT22;62001;53.366;6.636;2023-03-25T04:34:56;8.60;99.90
52941;DHT22;62001;53.366;6.636;2023-03-25T04:37:27;8.60;99.90
52941;DHT22;62001;53.366;6.636;2023-03-25T04:39:53;8.60;99.90
52941;DHT22;62001;53.366;6.636;2023-03-25T04:42:21;8.60;99.90
52941;DHT22;62001;53.366;6.636;2023-03-25T04:44:51;8.60;99.90
52941;DHT22;62001;53.366;6.636;2023-03-25T04:47:21;8.70;99.90
52941;DHT22;62001;53.366;6.636;2023-03-25T04:49:47;8.70;99.90
52941;DHT22;62001;53.366;6.636;2023-03-25T04:52:13;8.70;99.90
52941;DHT22;62001;53.366;6.636;2023-03-25T04:54:39;8.70;99.90
52941;DHT22;62001;53.366;6.636;2023-03-25T04:57:05;8.70;99.90
52941;DHT22;62001;53.366;6.636;2023-03-25T04:59:33;8.70;99.90
52941;DHT22;62001;53.366;6.636;2023-03-25T05:01:59;8.70;99.90
52941;DHT22;62001;53.366;6.636;2023-03-25T05:04:27;8.70;99.90
52941;DHT22;62001;53.366;6.636;2023-03-25T05:06:53;8.70;99.90
52941;DHT22;62001;53.366;6.636;2023-03-25T05:09:21;8.70;99.90
52941;DHT22;62001;53.366;6.636;2023-03-25T05:11:48;8.70;99.90
52941;DHT22;62001;53.366;6.636;2023-03-25T05:14:16;8.70;99.90
52941;DHT22;62001;53.366;6.636;2023-03-25T05:16:42;8.70;99.90
52941;DHT22;62001;53.366;6.636;2023-03-25T05:19:08;8.80;99.90
52941;DHT22;62001;53.366;6.636;2023-03-25T05:21:36;8.80;99.90
52941;DHT22;62001;53.366;6.636;2023-03-25T05:24:07;8.70;99.90
52941;DHT22;62001;53.366;6.636;2023-03-25T05:26:39;8.80;99.90
52941;DHT22;62001;53.366;6.636;2023-03-25T05:29:11;8.80;99.90
52941;DHT22;62001;53.366;6.636;2023-03-25T05:31:45;8.80;99.90
52941;DHT22;62001;53.366;6.636;2023-03-25T05:34:11;8.70;99.90
52941;DHT22;62001;53.366;6.636;2023-03-25T05:36:39;8.80;99.90
52941;DHT22;62001;53.366;6.636;2023-03-25T05:39:05;8.80;99.90
52941;DHT22;62001;53.366;6.636;2023-03-25T05:41:31;8.80;99.90
52941;DHT22;62001;53.366;6.636;2023-03-25T05:44:00;8.80;99.90
52941;DHT22;62001;53.366;6.636;2023-03-25T05:46:27;8.80;99.90
52941;DHT22;62001;53.366;6.636;2023-03-25T05:48:56;8.80;99.90
52941;DHT22;62001;53.366;6.636;2023-03-25T05:51:25;8.80;99.90
52941;DHT22;62001;53.366;6.636;2023-03-25T05:53:51;8.80;99.90
52941;DHT22;62001;53.366;6.636;2023-03-25T05:56:21;8.80;99.90
52941;DHT22;62001;53.366;6.636;2023-03-25T05:58:50;8.80;99.90
52941;DHT22;62001;53.366;6.636;2023-03-25T06:01:17;8.80;99.90
52941;DHT22;62001;53.366;6.636;2023-03-25T06:03:44;8.80;99.90
52941;DHT22;62001;53.366;6.636;2023-03-25T06:06:10;8.80;99.90
52941;DHT22;62001;53.366;6.636;2023-03-25T06:08:49;8.80;99.90
52941;DHT22;62001;53.366;6.636;2023-03-25T06:11:18;8.80;99.90
52941;DHT22;62001;53.366;6.636;2023-03-25T06:13:46;8.80;99.90
52941;DHT22;62001;53.366;6.636;2023-03-25T06:16:24;8.80;99.90
52941;DHT22;62001;53.366;6.636;2023-03-25T06:18:54;8.90;99.90
52941;DHT22;62001;53.366;6.636;2023-03-25T06:21:24;8.80;99.90
52941;DHT22;62001;53.366;6.636;2023-03-25T06:23:51;8.80;99.90
52941;DHT22;62001;53.366;6.636;2023-03-25T06:26:19;8.90;99.90
52941;DHT22;62001;53.366;6.636;2023-03-25T06:28:46;8.90;99.90
52941;DHT22;62001;53.366;6.636;2023-03-25T06:31:23;8.90;99.90
52941;DHT22;62001;53.366;6.636;2023-03-25T06:33:53;9.00;99.90
52941;DHT22;62001;53.366;6.636;2023-03-25T06:36:20;9.00;99.90
52941;DHT22;62001;53.366;6.636;2023-03-25T06:38:48;9.00;99.90
52941;DHT22;62001;53.366;6.636;2023-03-25T06:41:15;9.00;99.90
52941;DHT22;62001;53.366;6.636;2023-03-25T06:43:45;9.00;99.90
52941;DHT22;62001;53.366;6.636;2023-03-25T06:46:12;9.10;99.90
52941;DHT22;62001;53.366;6.636;2023-03-25T06:48:38;9.10;99.90
52941;DHT22;62001;53.366;6.636;2023-03-25T06:51:04;9.10;99.90
52941;DHT22;62001;53.366;6.636;2023-03-25T06:53:30;9.10;99.90
52941;DHT22;62001;53.366;6.636;2023-03-25T06:55:57;9.10;99.90
52941;DHT22;62001;53.366;6.636;2023-03-25T06:58:23;9.10;99.90
52941;DHT22;62001;53.366;6.636;2023-03-25T07:00:53;9.10;99.90
52941;DHT22;62001;53.366;6.636;2023-03-25T07:03:19;9.10;99.90
52941;DHT22;62001;53.366;6.636;2023-03-25T07:05:47;9.10;99.90
52941;DHT22;62001;53.366;6.636;2023-03-25T07:08:14;9.10;99.90
52941;DHT22;62001;53.366;6.636;2023-03-25T07:10:40;9.00;99.90
52941;DHT22;62001;53.366;6.636;2023-03-25T07:13:07;9.10;99.90
52941;DHT22;62001;53.366;6.636;2023-03-25T07:15:33;9.20;99.90
52941;DHT22;62001;53.366;6.636;2023-03-25T07:17:59;9.30;99.90
52941;DHT22;62001;53.366;6.636;2023-03-25T07:20:25;9.40;99.90
52941;DHT22;62001;53.366;6.636;2023-03-25T07:22:53;9.50;99.90
52941;DHT22;62001;53.366;6.636;2023-03-25T07:25:20;9.60;99.90
52941;DHT22;62001;53.366;6.636;2023-03-25T07:27:46;9.60;99.90
52941;DHT22;62001;53.366;6.636;2023-03-25T07:30:12;9.70;99.90
52941;DHT22;62001;53.366;6.636;2023-03-25T07:32:38;9.70;99.90
52941;DHT22;62001;53.366;6.636;2023-03-25T07:35:05;9.80;99.90
52941;DHT22;62001;53.366;6.636;2023-03-25T07:37:32;9.90;99.90
52941;DHT22;62001;53.366;6.636;2023-03-25T07:39:58;9.80;99.90
52941;DHT22;62001;53.366;6.636;2023-03-25T07:42:24;9.70;99.90
52941;DHT22;62001;53.366;6.636;2023-03-25T07:44:50;9.70;99.90
52941;DHT22;62001;53.366;6.636;2023-03-25T07:47:16;9.80;99.90
52941;DHT22;62001;53.366;6.636;2023-03-25T07:49:42;9.70;99.90
52941;DHT22;62001;53.366;6.636;2023-03-25T07:52:08;9.70;99.90
52941;DHT22;62001;53.366;6.636;2023-03-25T07:54:34;9.70;99.90
52941;DHT22;62001;53.366;6.636;2023-03-25T07:57:01;9.80;99.90
52941;DHT22;62001;53.366;6.636;2023-03-25T07:59:27;9.90;99.90
52941;DHT22;62001;53.366;6.636;2023-03-25T08:01:53;9.90;99.90
52941;DHT22;62001;53.366;6.636;2023-03-25T08:04:18;10.00;99.90
52941;DHT22;62001;53.366;6.636;2023-03-25T08:06:44;9.90;99.90
52941;DHT22;62001;53.366;6.636;2023-03-25T08:09:10;9.90;99.90
52941;DHT22;62001;53.366;6.636;2023-03-25T08:11:36;9.80;99.90
52941;DHT22;62001;53.366;6.636;2023-03-25T08:14:02;9.60;99.90
52941;DHT22;62001;53.366;6.636;2023-03-25T08:16:28;9.60;99.90
52941;DHT22;62001;53.366;6.636;2023-03-25T08:18:54;9.50;99.90
52941;DHT22;62001;53.366;6.636;2023-03-25T08:21:20;9.30;99.90
52941;DHT22;62001;53.366;6.636;2023-03-25T08:23:53;9.20;99.90
52941;DHT22;62001;53.366;6.636;2023-03-25T08:26:27;9.10;99.90
52941;DHT22;62001;53.366;6.636;2023-03-25T08:28:54;9.10;99.90
52941;DHT22;62001;53.366;6.636;2023-03-25T08:31:23;9.20;99.90
52941;DHT22;62001;53.366;6.636;2023-03-25T08:33:49;9.20;99.90
52941;DHT22;62001;53.366;6.636;2023-03-25T08:36:15;9.30;99.90
52941;DHT22;62001;53.366;6.636;2023-03-25T08:38:45;9.30;99.90
52941;DHT22;62001;53.366;6.636;2023-03-25T08:41:11;9.30;99.90
52941;DHT22;62001;53.366;6.636;2023-03-25T08:43:37;9.30;99.90
52941;DHT22;62001;53.366;6.636;2023-03-25T08:46:03;9.30;99.90
52941;DHT22;62001;53.366;6.636;2023-03-25T08:48:32;9.30;99.90
52941;DHT22;62001;53.366;6.636;2023-03-25T08:50:58;9.30;99.90
52941;DHT22;62001;53.366;6.636;2023-03-25T08:53:24;9.30;99.90
52941;DHT22;62001;53.366;6.636;2023-03-25T08:55:54;9.30;99.90
52941;DHT22;62001;53.366;6.636;2023-03-25T08:58:21;9.40;99.90
52941;DHT22;62001;53.366;6.636;2023-03-25T09:00:50;9.40;99.90
52941;DHT22;62001;53.366;6.636;2023-03-25T09:03:19;9.40;99.90
52941;DHT22;62001;53.366;6.636;2023-03-25T09:05:46;9.50;99.90
52941;DHT22;62001;53.366;6.636;2023-03-25T09:08:12;9.60;99.90
52941;DHT22;62001;53.366;6.636;2023-03-25T09:10:38;9.80;99.90
52941;DHT22;62001;53.366;6.636;2023-03-25T09:13:04;9.80;99.90
52941;DHT22;62001;53.366;6.636;2023-03-25T09:15:30;9.90;99.90
52941;DHT22;62001;53.366;6.636;2023-03-25T09:17:56;10.10;99.90
52941;DHT22;62001;53.366;6.636;2023-03-25T09:20:22;10.30;99.90
52941;DHT22;62001;53.366;6.636;2023-03-25T09:22:48;10.70;99.90
52941;DHT22;62001;53.366;6.636;2023-03-25T09:25:15;11.00;99.90
52941;DHT22;62001;53.366;6.636;2023-03-25T09:27:40;11.20;99.90
52941;DHT22;62001;53.366;6.636;2023-03-25T09:30:07;11.10;99.90
52941;DHT22;62001;53.366;6.636;2023-03-25T09:32:33;10.90;99.90
52941;DHT22;62001;53.366;6.636;2023-03-25T09:34:59;10.80;99.90
52941;DHT22;62001;53.366;6.636;2023-03-25T09:37:25;10.70;99.90
52941;DHT22;62001;53.366;6.636;2023-03-25T09:39:52;11.00;99.90
52941;DHT22;62001;53.366;6.636;2023-03-25T09:42:38;11.30;99.90
52941;DHT22;62001;53.366;6.636;2023-03-25T09:47:39;11.70;99.90
52941;DHT22;62001;53.366;6.636;2023-03-25T09:50:11;11.80;99.90
52941;DHT22;62001;53.366;6.636;2023-03-25T09:53:00;12.10;99.90
52941;DHT22;62001;53.366;6.636;2023-03-25T09:55:37;12.20;99.90
52941;DHT22;62001;53.366;6.636;2023-03-25T09:58:28;12.10;99.90
52941;DHT22;62001;53.366;6.636;2023-03-25T10:01:03;12.00;99.90
52941;DHT22;62001;53.366;6.636;2023-03-25T10:06:29;11.50;99.90
52941;DHT22;62001;53.366;6.636;2023-03-25T10:20:17;10.60;99.90
52941;DHT22;62001;53.366;6.636;2023-03-25T10:23:20;10.60;99.90
52941;DHT22;62001;53.366;6.636;2023-03-25T10:25:51;10.60;99.90
52941;DHT22;62001;53.366;6.636;2023-03-25T10:28:30;10.60;99.90
52941;DHT22;62001;53.366;6.636;2023-03-25T10:30:58;10.60;99.90
52941;DHT22;62001;53.366;6.636;2023-03-25T10:33:35;10.70;99.90
52941;DHT22;62001;53.366;6.636;2023-03-25T10:36:05;10.80;99.90
52941;DHT22;62001;53.366;6.636;2023-03-25T10:38:34;10.90;99.90
52941;DHT22;62001;53.366;6.636;2023-03-25T10:41:26;11.20;99.90
52941;DHT22;62001;53.366;6.636;2023-03-25T10:43:53;11.40;99.90
52941;DHT22;62001;53.366;6.636;2023-03-25T10:46:32;11.50;99.90
52941;DHT22;62001;53.366;6.636;2023-03-25T10:48:59;11.40;99.90
52941;DHT22;62001;53.366;6.636;2023-03-25T10:51:31;11.20;99.90
52941;DHT22;62001;53.366;6.636;2023-03-25T10:53:58;11.00;99.90
52941;DHT22;62001;53.366;6.636;2023-03-25T10:56:34;10.90;99.90
52941;DHT22;62001;53.366;6.636;2023-03-25T10:59:06;11.00;99.90
52941;DHT22;62001;53.366;6.636;2023-03-25T11:01:41;11.10;99.90
52941;DHT22;62001;53.366;6.636;2023-03-25T11:04:12;11.20;99.90
52941;DHT22;62001;53.366;6.636;2023-03-25T11:06:39;11.10;99.90
52941;DHT22;62001;53.366;6.636;2023-03-25T11:09:26;11.20;99.90
52941;DHT22;62001;53.366;6.636;2023-03-25T11:11:58;11.30;99.90
52941;DHT22;62001;53.366;6.636;2023-03-25T11:14:27;11.40;99.90
52941;DHT22;62001;53.366;6.636;2023-03-25T11:17:02;11.50;99.90
52941;DHT22;62001;53.366;6.636;2023-03-25T11:22:15;11.50;99.90
52941;DHT22;62001;53.366;6.636;2023-03-25T11:24:46;11.50;99.90
52941;DHT22;62001;53.366;6.636;2023-03-25T11:27:21;11.60;99.90
52941;DHT22;62001;53.366;6.636;2023-03-25T11:30:03;11.80;99.90
52941;DHT22;62001;53.366;6.636;2023-03-25T11:32:38;11.90;99.90
52941;DHT22;62001;53.366;6.636;2023-03-25T11:35:21;12.30;99.90
52941;DHT22;62001;53.366;6.636;2023-03-25T11:37:55;12.50;99.90
52941;DHT22;62001;53.366;6.636;2023-03-25T11:40:22;12.50;99.90
52941;DHT22;62001;53.366;6.636;2023-03-25T11:42:52;12.50;99.90
52941;DHT22;62001;53.366;6.636;2023-03-25T11:45:26;12.60;99.90
52941;DHT22;62001;53.366;6.636;2023-03-25T11:47:58;12.70;99.90
52941;DHT22;62001;53.366;6.636;2023-03-25T11:50:27;12.70;99.90
52941;DHT22;62001;53.366;6.636;2023-03-25T11:52:56;12.70;99.90
52941;DHT22;62001;53.366;6.636;2023-03-25T11:55:29;12.70;99.90
52941;DHT22;62001;53.366;6.636;2023-03-25T11:57:58;12.60;99.90
52941;DHT22;62001;53.366;6.636;2023-03-25T12:03:05;12.60;99.90
52941;DHT22;62001;53.366;6.636;2023-03-25T12:05:41;12.70;99.90
52941;DHT22;62001;53.366;6.636;2023-03-25T12:08:13;12.60;99.90
52941;DHT22;62001;53.366;6.636;2023-03-25T12:22:11;12.40;99.90
52941;DHT22;62001;53.366;6.636;2023-03-25T12:41:47;11.50;99.90
52941;DHT22;62001;53.366;6.636;2023-03-25T12:47:34;11.70;99.90
52941;DHT22;62001;53.366;6.636;2023-03-25T12:52:58;11.80;99.90
52941;DHT22;62001;53.366;6.636;2023-03-25T13:09:09;11.40;99.90
52941;DHT22;62001;53.366;6.636;2023-03-25T13:12:06;11.40;99.90
52941;DHT22;62001;53.366;6.636;2023-03-25T13:14:52;11.30;99.90
52941;DHT22;62001;53.366;6.636;2023-03-25T13:17:25;11.20;99.90
52941;DHT22;62001;53.366;6.636;2023-03-25T13:19:55;11.00;99.90
52941;DHT22;62001;53.366;6.636;2023-03-25T13:22:26;10.70;99.90
52941;DHT22;62001;53.366;6.636;2023-03-25T13:24:58;10.40;99.90
52941;DHT22;62001;53.366;6.636;2023-03-25T13:27:31;10.20;99.90
52941;DHT22;62001;53.366;6.636;2023-03-25T13:29:58;9.90;99.90
52941;DHT22;62001;53.366;6.636;2023-03-25T13:32:36;9.60;99.90
52941;DHT22;62001;53.366;6.636;2023-03-25T13:35:10;9.20;99.90
52941;DHT22;62001;53.366;6.636;2023-03-25T13:37:43;9.00;99.90
52941;DHT22;62001;53.366;6.636;2023-03-25T13:40:25;8.80;99.90
52941;DHT22;62001;53.366;6.636;2023-03-25T13:45:22;8.60;99.90
52941;DHT22;62001;53.366;6.636;2023-03-25T13:50:30;8.50;99.90
52941;DHT22;62001;53.366;6.636;2023-03-25T13:53:06;8.50;99.90
52941;DHT22;62001;53.366;6.636;2023-03-25T13:55:42;8.40;99.90
52941;DHT22;62001;53.366;6.636;2023-03-25T14:01:36;8.20;99.90
52941;DHT22;62001;53.366;6.636;2023-03-25T14:12:21;8.20;99.90
52941;DHT22;62001;53.366;6.636;2023-03-25T14:15:05;8.30;99.90
52941;DHT22;62001;53.366;6.636;2023-03-25T14:17:35;8.60;99.90
52941;DHT22;62001;53.366;6.636;2023-03-25T14:20:03;8.90;99.90
52941;DHT22;62001;53.366;6.636;2023-03-25T14:22:38;9.10;99.90
52941;DHT22;62001;53.366;6.636;2023-03-25T14:25:18;9.30;99.90
52941;DHT22;62001;53.366;6.636;2023-03-25T14:27:48;9.40;99.90
52941;DHT22;62001;53.366;6.636;2023-03-25T14:30:26;9.50;99.90
52941;DHT22;62001;53.366;6.636;2023-03-25T14:32:56;9.70;99.90
52941;DHT22;62001;53.366;6.636;2023-03-25T14:43:25;9.60;99.90
52941;DHT22;62001;53.366;6.636;2023-03-25T14:48:32;9.50;99.90
52941;DHT22;62001;53.366;6.636;2023-03-25T14:51:17;9.50;99.90
52941;DHT22;62001;53.366;6.636;2023-03-25T14:56:30;9.80;99.90
52941;DHT22;62001;53.366;6.636;2023-03-25T14:59:06;9.90;99.90
52941;DHT22;62001;53.366;6.636;2023-03-25T15:01:34;9.90;99.90
52941;DHT22;62001;53.366;6.636;2023-03-25T15:04:15;9.90;99.90
52941;DHT22;62001;53.366;6.636;2023-03-25T15:06:47;10.00;99.90
52941;DHT22;62001;53.366;6.636;2023-03-25T15:09:17;9.90;99.90
52941;DHT22;62001;53.366;6.636;2023-03-25T15:11:54;9.90;99.90
52941;DHT22;62001;53.366;6.636;2023-03-25T15:14:27;9.80;99.90
52941;DHT22;62001;53.366;6.636;2023-03-25T15:17:02;9.80;99.90
52941;DHT22;62001;53.366;6.636;2023-03-25T15:22:29;9.70;99.90
52941;DHT22;62001;53.366;6.636;2023-03-25T15:24:58;9.60;99.90
52941;DHT22;62001;53.366;6.636;2023-03-25T15:27:48;9.60;99.90
52941;DHT22;62001;53.366;6.636;2023-03-25T15:30:33;9.50;99.90
52941;DHT22;62001;53.366;6.636;2023-03-25T15:44:23;9.20;99.90
52941;DHT22;62001;53.366;6.636;2023-03-25T15:56:12;9.20;99.90
52941;DHT22;62001;53.366;6.636;2023-03-25T16:01:25;9.20;99.90
52941;DHT22;62001;53.366;6.636;2023-03-25T16:04:43;9.30;99.90
52941;DHT22;62001;53.366;6.636;2023-03-25T16:06:46;9.20;99.90
52941;DHT22;62001;53.366;6.636;2023-03-25T16:09:19;9.20;99.90
52941;DHT22;62001;53.366;6.636;2023-03-25T16:11:46;9.20;99.90
52941;DHT22;62001;53.366;6.636;2023-03-25T16:14:13;9.30;99.90
52941;DHT22;62001;53.366;6.636;2023-03-25T16:19:21;9.30;99.90
52941;DHT22;62001;53.366;6.636;2023-03-25T16:21:49;9.40;99.90
52941;DHT22;62001;53.366;6.636;2023-03-25T16:24:16;9.30;99.90
52941;DHT22;62001;53.366;6.636;2023-03-25T16:26:47;9.40;99.90
52941;DHT22;62001;53.366;6.636;2023-03-25T16:29:22;9.40;99.90
52941;DHT22;62001;53.366;6.636;2023-03-25T16:32:02;9.30;99.90
52941;DHT22;62001;53.366;6.636;2023-03-25T16:34:34;9.30;99.90
52941;DHT22;62001;53.366;6.636;2023-03-25T16:37:03;9.30;99.90
52941;DHT22;62001;53.366;6.636;2023-03-25T16:39:34;9.20;99.90
52941;DHT22;62001;53.366;6.636;2023-03-25T16:42:10;9.20;99.90
52941;DHT22;62001;53.366;6.636;2023-03-25T16:44:37;9.10;99.90
52941;DHT22;62001;53.366;6.636;2023-03-25T16:47:04;9.10;99.90
52941;DHT22;62001;53.366;6.636;2023-03-25T16:49:33;9.00;99.90
52941;DHT22;62001;53.366;6.636;2023-03-25T16:52:03;9.00;99.90
52941;DHT22;62001;53.366;6.636;2023-03-25T16:54:46;9.00;99.90
52941;DHT22;62001;53.366;6.636;2023-03-25T16:57:31;9.00;99.90
52941;DHT22;62001;53.366;6.636;2023-03-25T17:00:23;8.90;99.90
52941;DHT22;62001;53.366;6.636;2023-03-25T17:02:49;8.90;99.90
52941;DHT22;62001;53.366;6.636;2023-03-25T17:05:24;8.90;99.90
52941;DHT22;62001;53.366;6.636;2023-03-25T17:08:01;8.90;99.90
52941;DHT22;62001;53.366;6.636;2023-03-25T17:10:32;8.90;99.90
52941;DHT22;62001;53.366;6.636;2023-03-25T17:13:09;8.80;99.90
52941;DHT22;62001;53.366;6.636;2023-03-25T17:15:36;8.80;99.90
52941;DHT22;62001;53.366;6.636;2023-03-25T17:18:05;8.80;99.90
52941;DHT22;62001;53.366;6.636;2023-03-25T17:20:40;8.80;99.90
52941;DHT22;62001;53.366;6.636;2023-03-25T17:23:42;8.80;99.90
52941;DHT22;62001;53.366;6.636;2023-03-25T17:26:13;8.70;99.90
52941;DHT22;62001;53.366;6.636;2023-03-25T17:31:30;8.70;99.90
52941;DHT22;62001;53.366;6.636;2023-03-25T17:34:17;8.70;99.90
52941;DHT22;62001;53.366;6.636;2023-03-25T17:36:48;8.70;99.90
52941;DHT22;62001;53.366;6.636;2023-03-25T17:39:26;8.60;99.90
52941;DHT22;62001;53.366;6.636;2023-03-25T17:42:00;8.60;99.90
52941;DHT22;62001;53.366;6.636;2023-03-25T17:44:35;8.60;99.90
52941;DHT22;62001;53.366;6.636;2023-03-25T17:47:02;8.60;99.90
52941;DHT22;62001;53.366;6.636;2023-03-25T17:49:28;8.50;99.90
52941;DHT22;62001;53.366;6.636;2023-03-25T17:51:54;8.50;99.90
52941;DHT22;62001;53.366;6.636;2023-03-25T17:54:20;8.50;99.90
52941;DHT22;62001;53.366;6.636;2023-03-25T17:56:46;8.50;99.90
52941;DHT22;62001;53.366;6.636;2023-03-25T17:59:23;8.50;99.90
52941;DHT22;62001;53.366;6.636;2023-03-25T18:01:52;8.50;99.90
52941;DHT22;62001;53.366;6.636;2023-03-25T18:04:18;8.40;99.90
52941;DHT22;62001;53.366;6.636;2023-03-25T18:06:47;8.50;99.90
52941;DHT22;62001;53.366;6.636;2023-03-25T18:09:18;8.40;99.90
52941;DHT22;62001;53.366;6.636;2023-03-25T18:11:47;8.40;99.90
52941;DHT22;62001;53.366;6.636;2023-03-25T18:14:14;8.40;99.90
52941;DHT22;62001;53.366;6.636;2023-03-25T18:16:40;8.40;99.90
52941;DHT22;62001;53.366;6.636;2023-03-25T18:19:14;8.40;99.90
52941;DHT22;62001;53.366;6.636;2023-03-25T18:21:41;8.40;99.90
52941;DHT22;62001;53.366;6.636;2023-03-25T18:24:07;8.40;99.90
52941;DHT22;62001;53.366;6.636;2023-03-25T18:26:33;8.40;99.90
52941;DHT22;62001;53.366;6.636;2023-03-25T18:28:59;8.30;99.90
52941;DHT22;62001;53.366;6.636;2023-03-25T18:31:27;8.30;99.90
52941;DHT22;62001;53.366;6.636;2023-03-25T18:33:53;8.30;99.90
52941;DHT22;62001;53.366;6.636;2023-03-25T18:36:21;8.30;99.90
52941;DHT22;62001;53.366;6.636;2023-03-25T18:38:47;8.30;99.90
52941;DHT22;62001;53.366;6.636;2023-03-25T18:41:14;8.30;99.90
52941;DHT22;62001;53.366;6.636;2023-03-25T18:43:43;8.20;99.90
52941;DHT22;62001;53.366;6.636;2023-03-25T18:46:13;8.20;99.90
52941;DHT22;62001;53.366;6.636;2023-03-25T18:48:39;8.20;99.90
52941;DHT22;62001;53.366;6.636;2023-03-25T18:51:05;8.10;99.90
52941;DHT22;62001;53.366;6.636;2023-03-25T18:53:31;8.10;99.90